Terminal Aerodrome Forecast
Issued by NWS

Home | Current Version | Previous Version | Text Only | Print | Product List | Glossary On
Versions: 1 2 3 4 5 6 7 8 9
000
FTAK31 PAJN 260500
TAFAWG
TAF
PAWG 260536Z 2606/2706 13007KT P6SM -SHRA BKN025 OVC040
     FM261300 13004KT 6SM BCFG VCSH SCT005 SCT015 OVC030
     FM261900 11005KT P6SM VCSH BKN030
     FM270100 11008KT 6SM -RA BR SCT020 BKN030
      AMD LTD TO CLD VIS AND WIND 2606/2615=

USA.gov is the U.S. government's official web portal to all federal, state and local government web resources and services.